createdAt,value
2022-12-11T00:01:58.212Z,15.70
2022-12-11T00:04:24.889Z,15.02
2022-12-11T00:06:52.893Z,15.52
2022-12-11T00:09:20.934Z,15.68
2022-12-11T00:11:48.107Z,14.68
2022-12-11T00:14:15.622Z,14.70
2022-12-11T00:16:42.881Z,14.35
2022-12-11T00:19:09.580Z,14.55
2022-12-11T00:21:36.360Z,13.73
2022-12-11T00:24:03.126Z,15.10
2022-12-11T00:26:29.708Z,14.50
2022-12-11T00:28:57.090Z,14.52
2022-12-11T00:31:24.336Z,13.70
2022-12-11T00:33:51.676Z,14.88
2022-12-11T00:36:25.022Z,14.30
2022-12-11T00:38:52.843Z,13.57
2022-12-11T00:41:20.367Z,13.60
2022-12-11T00:46:14.315Z,13.75
2022-12-11T00:48:41.355Z,13.65
2022-12-11T00:51:08.927Z,13.20
2022-12-11T00:53:35.567Z,13.48
2022-12-11T00:56:02.152Z,13.07
2022-12-11T00:58:28.794Z,12.00
2022-12-11T01:00:55.442Z,12.68
2022-12-11T01:03:22.176Z,13.15
2022-12-11T01:05:53.957Z,13.52
2022-12-11T01:08:20.987Z,13.18
2022-12-11T01:10:47.761Z,11.93
2022-12-11T01:13:15.132Z,12.15
2022-12-11T01:15:44.388Z,11.73
2022-12-11T01:18:13.091Z,12.63
2022-12-11T01:20:40.804Z,11.35
2022-12-11T01:23:07.579Z,10.65
2022-12-11T01:25:38.083Z,11.23
2022-12-11T01:28:06.197Z,11.93
2022-12-11T01:30:33.284Z,11.63
2022-12-11T01:33:00.834Z,11.00
2022-12-11T01:35:28.074Z,11.60
2022-12-11T01:37:55.193Z,11.18
2022-12-11T01:40:22.339Z,11.55
2022-12-11T01:42:49.507Z,11.27
2022-12-11T01:45:27.456Z,10.98
2022-12-11T01:48:05.389Z,11.77
2022-12-11T01:50:35.984Z,11.10
2022-12-11T01:53:06.054Z,11.68
2022-12-11T01:55:34.244Z,10.32
2022-12-11T01:58:02.460Z,10.60
2022-12-11T02:00:29.504Z,10.90
2022-12-11T02:02:56.082Z,10.75
2022-12-11T02:05:22.663Z,10.60
2022-12-11T02:08:01.419Z,11.00
2022-12-11T02:10:51.462Z,10.48
2022-12-11T02:13:26.033Z,10.18
2022-12-11T02:15:59.596Z,9.98
2022-12-11T02:18:38.920Z,10.30
2022-12-11T02:21:19.149Z,10.13
2022-12-11T02:24:05.650Z,9.93
2022-12-11T02:26:49.329Z,10.35
2022-12-11T02:29:27.182Z,9.73
2022-12-11T02:32:01.552Z,10.27
2022-12-11T02:34:55.544Z,10.57
2022-12-11T02:37:25.819Z,9.38
2022-12-11T02:39:54.542Z,9.55
2022-12-11T02:42:22.371Z,9.48
2022-12-11T02:44:51.665Z,9.30
2022-12-11T02:49:50.011Z,9.65
2022-12-11T02:52:20.083Z,9.07
2022-12-11T02:54:48.812Z,8.82
2022-12-11T02:57:21.850Z,9.55
2022-12-11T02:59:48.447Z,9.02
2022-12-11T03:02:16.825Z,8.50
2022-12-11T03:04:44.888Z,8.40
2022-12-11T03:07:23.269Z,9.18
2022-12-11T03:09:50.922Z,8.35
2022-12-11T03:12:22.085Z,9.48
2022-12-11T03:14:49.269Z,9.97
2022-12-11T03:17:22.167Z,9.25
2022-12-11T03:20:00.699Z,8.10
2022-12-11T03:22:38.954Z,9.15
2022-12-11T03:25:17.762Z,8.82
2022-12-11T03:28:10.825Z,8.85
2022-12-11T03:30:38.710Z,9.20
2022-12-11T03:33:13.570Z,9.52
2022-12-11T03:35:48.804Z,9.68
2022-12-11T03:38:35.972Z,9.07
2022-12-11T03:41:05.418Z,9.32
2022-12-11T03:43:34.058Z,10.18
2022-12-11T03:46:01.403Z,9.32
2022-12-11T03:48:33.680Z,9.45
2022-12-11T03:51:04.954Z,9.18
2022-12-11T03:53:33.519Z,8.80
2022-12-11T03:56:02.601Z,9.77
2022-12-11T03:58:29.748Z,9.35
2022-12-11T04:00:56.347Z,11.23
2022-12-11T04:03:23.032Z,9.52
2022-12-11T04:05:52.262Z,10.13
2022-12-11T04:08:22.702Z,10.50
2022-12-11T04:11:10.013Z,9.10
2022-12-11T04:13:37.231Z,9.88
2022-12-11T04:16:04.083Z,9.27
2022-12-11T04:18:49.539Z,9.48
2022-12-11T04:21:39.208Z,10.30
2022-12-11T04:24:15.858Z,8.43
2022-12-11T04:26:47.366Z,10.68
2022-12-11T04:29:14.822Z,10.02
2022-12-11T04:31:41.927Z,9.43
2022-12-11T04:34:08.845Z,10.57
2022-12-11T04:36:35.914Z,9.93
2022-12-11T04:39:03.470Z,9.50
2022-12-11T04:41:30.040Z,10.25
2022-12-11T04:43:56.646Z,11.07
2022-12-11T04:46:24.722Z,10.13
2022-12-11T04:48:57.312Z,9.98
2022-12-11T04:51:25.080Z,10.65
2022-12-11T04:53:51.901Z,10.25
2022-12-11T04:56:18.697Z,10.68
2022-12-11T04:58:46.281Z,10.40
2022-12-11T05:01:18.496Z,10.95
2022-12-11T05:03:45.880Z,9.90
2022-12-11T05:06:12.948Z,10.30
2022-12-11T05:08:42.219Z,10.68
2022-12-11T05:11:11.562Z,10.02
2022-12-11T05:13:38.862Z,9.95
2022-12-11T05:16:07.350Z,9.55
2022-12-11T05:18:34.250Z,10.50
2022-12-11T05:21:06.185Z,10.25
2022-12-11T05:23:33.624Z,9.45
2022-12-11T05:26:06.700Z,8.75
2022-12-11T05:28:35.704Z,9.73
2022-12-11T05:31:06.459Z,9.82
2022-12-11T05:33:34.185Z,8.82
2022-12-11T05:36:00.836Z,9.23
2022-12-11T05:38:27.556Z,9.45
2022-12-11T05:40:59.026Z,8.70
2022-12-11T05:43:27.449Z,9.88
2022-12-11T05:45:55.006Z,9.18
2022-12-11T05:48:21.767Z,8.93
2022-12-11T05:51:01.971Z,9.65
2022-12-11T05:53:29.519Z,8.75
2022-12-11T05:56:08.939Z,9.63
2022-12-11T05:58:35.922Z,8.82
2022-12-11T06:01:03.028Z,8.88
2022-12-11T06:03:29.610Z,9.35
2022-12-11T06:05:56.266Z,8.68
2022-12-11T06:08:22.951Z,8.52
2022-12-11T06:10:50.424Z,9.32
2022-12-11T06:13:17.753Z,8.52
2022-12-11T06:15:44.887Z,8.15
2022-12-11T06:18:11.719Z,8.15
2022-12-11T06:20:38.898Z,9.00
2022-12-11T06:23:05.580Z,9.02
2022-12-11T06:25:32.410Z,8.00
2022-12-11T06:27:59.039Z,8.77
2022-12-11T06:30:38.714Z,7.78
2022-12-11T06:33:06.540Z,8.18
2022-12-11T06:35:38.588Z,8.20
2022-12-11T06:38:08.657Z,8.00
2022-12-11T06:40:35.354Z,8.60
2022-12-11T06:43:01.932Z,8.35
2022-12-11T06:45:28.529Z,8.02
2022-12-11T06:47:55.623Z,8.27
2022-12-11T06:50:22.202Z,8.07
2022-12-11T06:52:48.815Z,7.75
2022-12-11T06:55:15.500Z,8.15
2022-12-11T06:57:42.125Z,7.22
2022-12-11T07:00:09.453Z,8.07
2022-12-11T07:02:36.121Z,8.05
2022-12-11T07:05:02.937Z,7.80
2022-12-11T07:07:30.222Z,7.30
2022-12-11T07:09:56.830Z,7.45
2022-12-11T07:12:23.728Z,8.00
2022-12-11T07:14:50.318Z,11.15
2022-12-11T07:19:43.481Z,19.25
2022-12-11T07:22:10.138Z,13.68
2022-12-11T07:24:36.888Z,11.38
2022-12-11T07:27:04.708Z,10.95
2022-12-11T07:29:31.329Z,10.02
2022-12-11T07:31:58.158Z,10.23
2022-12-11T07:34:24.901Z,10.45
2022-12-11T07:36:51.622Z,8.93
2022-12-11T07:39:18.613Z,8.60
2022-12-11T07:41:46.892Z,9.07
2022-12-11T07:44:13.676Z,8.32
2022-12-11T07:46:40.513Z,8.02
2022-12-11T07:49:07.137Z,7.90
2022-12-11T07:51:35.750Z,7.85
2022-12-11T07:54:06.018Z,7.60
2022-12-11T07:56:33.718Z,7.65
2022-12-11T07:59:02.039Z,7.90
2022-12-11T08:01:31.239Z,6.97
2022-12-11T08:03:58.179Z,6.85
2022-12-11T08:06:33.507Z,6.93
2022-12-11T08:09:01.703Z,7.32
2022-12-11T08:11:29.153Z,20.10
2022-12-11T08:13:55.906Z,7.35
2022-12-11T08:16:22.972Z,6.68
2022-12-11T08:18:50.248Z,6.72
2022-12-11T08:21:20.453Z,9.18
2022-12-11T08:23:48.009Z,6.80
2022-12-11T08:26:19.007Z,6.03
2022-12-11T08:28:46.078Z,6.50
2022-12-11T08:31:14.376Z,5.50
2022-12-11T08:33:41.890Z,6.55
2022-12-11T08:36:10.149Z,6.07
2022-12-11T08:38:37.359Z,6.13
2022-12-11T08:41:15.650Z,6.22
2022-12-11T08:43:43.067Z,5.45
2022-12-11T08:46:11.211Z,6.20
2022-12-11T08:48:39.718Z,6.07
2022-12-11T08:51:08.012Z,8.82
2022-12-11T08:53:35.109Z,8.68
2022-12-11T08:56:06.251Z,7.18
2022-12-11T08:58:32.995Z,7.30
2022-12-11T09:00:59.971Z,6.32
2022-12-11T09:03:27.113Z,18.00
2022-12-11T09:05:54.147Z,9.80
2022-12-11T09:08:20.805Z,8.13
2022-12-11T09:10:47.695Z,8.10
2022-12-11T09:13:14.444Z,7.38
2022-12-11T09:15:41.656Z,7.38
2022-12-11T09:18:08.809Z,6.88
2022-12-11T09:20:35.492Z,6.85
2022-12-11T09:23:02.444Z,6.68
2022-12-11T09:25:29.553Z,6.32
2022-12-11T09:27:56.541Z,6.10
2022-12-11T09:30:23.153Z,6.15
2022-12-11T09:32:49.822Z,5.50
2022-12-11T09:35:16.602Z,6.03
2022-12-11T09:37:43.204Z,5.68
2022-12-11T09:40:12.056Z,5.28
2022-12-11T09:43:14.060Z,5.25
2022-12-11T09:45:40.706Z,5.75
2022-12-11T09:48:10.292Z,4.90
2022-12-11T09:50:37.290Z,5.35
2022-12-11T09:53:17.080Z,5.53
2022-12-11T09:56:02.241Z,22.17
2022-12-11T09:58:42.559Z,19.13
2022-12-11T10:01:29.599Z,14.95
2022-12-11T10:04:13.777Z,10.57
2022-12-11T10:06:46.682Z,8.25
2022-12-11T10:09:45.803Z,7.88
2022-12-11T10:12:12.605Z,10.90
2022-12-11T10:15:14.065Z,12.27
2022-12-11T10:17:44.541Z,8.00
2022-12-11T10:20:23.414Z,7.97
2022-12-11T10:22:52.605Z,7.63
2022-12-11T10:30:23.187Z,7.30
2022-12-11T10:33:06.568Z,6.40
2022-12-11T10:35:43.558Z,6.55
2022-12-11T10:38:31.891Z,5.43
2022-12-11T10:41:04.438Z,6.10
2022-12-11T10:43:39.758Z,5.55
2022-12-11T10:46:16.101Z,5.55
2022-12-11T10:48:57.698Z,4.90
2022-12-11T10:51:33.916Z,5.95
2022-12-11T10:54:16.548Z,5.20
2022-12-11T10:56:48.168Z,5.00
2022-12-11T10:59:32.057Z,5.65
2022-12-11T11:01:58.851Z,4.00
2022-12-11T11:04:36.012Z,4.05
2022-12-11T11:07:24.888Z,4.40
2022-12-11T11:12:29.481Z,15.05
2022-12-11T11:15:10.067Z,20.23
2022-12-11T11:18:17.439Z,20.73
2022-12-11T11:20:48.127Z,14.77
2022-12-11T11:23:16.838Z,12.48
2022-12-11T11:26:09.683Z,11.77
2022-12-11T11:28:37.628Z,13.38
2022-12-11T11:31:12.948Z,12.40
2022-12-11T11:36:28.841Z,11.00
2022-12-11T11:39:16.961Z,10.43
2022-12-11T11:44:19.372Z,20.85
2022-12-11T11:46:53.424Z,14.00
2022-12-11T11:49:41.610Z,13.95
2022-12-11T11:52:17.550Z,14.73
2022-12-11T11:54:49.266Z,12.07
2022-12-11T11:57:32.968Z,12.60
2022-12-11T12:00:15.636Z,12.25
2022-12-11T12:02:42.625Z,12.48
2022-12-11T12:05:13.325Z,11.57
2022-12-11T12:07:52.811Z,10.88
2022-12-11T12:10:32.919Z,11.32
2022-12-11T12:13:44.416Z,11.25
2022-12-11T12:16:01.997Z,11.27
2022-12-11T12:18:56.796Z,11.00
2022-12-11T12:21:36.498Z,10.00
2022-12-11T12:24:31.430Z,10.30
2022-12-11T12:27:51.559Z,10.50
2022-12-11T12:30:22.837Z,9.65
2022-12-11T12:33:07.252Z,9.43
2022-12-11T12:35:36.157Z,10.02
2022-12-11T12:38:23.093Z,10.00
2022-12-11T12:41:04.676Z,9.57
2022-12-11T12:44:00.300Z,9.57
2022-12-11T12:46:32.818Z,9.23
2022-12-11T12:49:01.335Z,10.40
